createdAt,value
2016-08-30T00:00:26.210Z,12.24
2016-08-30T00:01:21.145Z,12.19
2016-08-30T00:02:17.411Z,12.26
2016-08-30T00:03:16.740Z,12.29
2016-08-30T00:04:17.573Z,12.12
2016-08-30T00:05:18.505Z,12.15
2016-08-30T00:06:16.702Z,12.3
2016-08-30T00:07:16.753Z,12.21
2016-08-30T00:08:16.687Z,12.16
2016-08-30T00:09:16.750Z,12.16
2016-08-30T00:10:16.829Z,12.11
2016-08-30T00:11:16.675Z,12.19
2016-08-30T00:12:16.703Z,12.15
2016-08-30T00:13:16.699Z,12.13
2016-08-30T00:14:16.661Z,12.06
2016-08-30T00:15:16.935Z,12.12
2016-08-30T00:16:16.694Z,12.12
2016-08-30T00:17:16.716Z,12.2
2016-08-30T00:18:16.705Z,12.12
2016-08-30T00:19:16.732Z,12.11
2016-08-30T00:20:16.687Z,12.09
2016-08-30T00:21:16.716Z,12.11
2016-08-30T00:22:16.703Z,12.01
2016-08-30T00:23:16.707Z,11.87
2016-08-30T00:24:16.715Z,12.11
2016-08-30T00:25:17.871Z,12.08
2016-08-30T00:26:16.707Z,11.99
2016-08-30T00:27:16.689Z,11.9
2016-08-30T00:28:16.706Z,11.83
2016-08-30T00:29:16.705Z,11.9
2016-08-30T00:30:18.489Z,11.82
2016-08-30T00:31:16.695Z,11.78
2016-08-30T00:32:16.689Z,11.93
2016-08-30T00:33:16.705Z,11.83
2016-08-30T00:34:16.688Z,11.78
2016-08-30T00:35:16.684Z,11.82
2016-08-30T00:36:17.033Z,11.72
2016-08-30T00:37:16.705Z,11.77
2016-08-30T00:38:16.708Z,11.83
2016-08-30T00:39:16.723Z,11.78
2016-08-30T00:40:16.706Z,11.78
2016-08-30T00:41:16.761Z,11.71
2016-08-30T00:42:16.811Z,11.75
2016-08-30T00:43:16.830Z,11.65
2016-08-30T00:44:16.724Z,11.75
2016-08-30T00:45:16.714Z,11.71
2016-08-30T00:46:16.702Z,11.64
2016-08-30T00:47:17.119Z,11.57
2016-08-30T00:48:16.726Z,11.61
2016-08-30T00:49:16.723Z,11.59
2016-08-30T00:50:16.733Z,11.5
2016-08-30T00:51:16.732Z,11.56
2016-08-30T00:52:16.739Z,11.53
2016-08-30T00:53:16.754Z,11.53
2016-08-30T00:54:19.904Z,11.43
2016-08-30T00:55:16.918Z,11.41
2016-08-30T00:56:16.887Z,11.47
2016-08-30T00:57:16.856Z,11.47
2016-08-30T00:58:16.910Z,11.49
2016-08-30T00:59:16.847Z,11.43
2016-08-30T01:00:17.243Z,11.5
2016-08-30T01:01:16.917Z,11.41
2016-08-30T01:02:16.859Z,11.36
2016-08-30T01:03:16.882Z,11.49
2016-08-30T01:04:16.894Z,11.39
2016-08-30T01:05:17.233Z,11.38
2016-08-30T01:06:16.891Z,11.41
2016-08-30T01:07:16.923Z,11.47
2016-08-30T01:08:16.886Z,11.39
2016-08-30T01:09:16.877Z,11.28
2016-08-30T01:10:16.924Z,11.39
2016-08-30T01:11:16.880Z,11.38
2016-08-30T01:12:16.940Z,11.46
2016-08-30T01:13:16.943Z,11.49
2016-08-30T01:14:16.892Z,11.46
2016-08-30T01:15:16.885Z,11.43
2016-08-30T01:17:26.754Z,11.39
2016-08-30T01:18:16.887Z,11.44
2016-08-30T01:19:16.907Z,11.41
2016-08-30T01:20:16.948Z,11.36
2016-08-30T01:21:16.890Z,11.36
2016-08-30T01:22:16.849Z,11.41
2016-08-30T01:23:16.942Z,11.39
2016-08-30T01:24:16.899Z,11.28
2016-08-30T01:25:16.923Z,11.36
2016-08-30T01:26:16.903Z,11.32
2016-08-30T01:27:17.040Z,11.41
2016-08-30T01:28:16.858Z,11.41
2016-08-30T01:29:16.938Z,11.39
2016-08-30T01:30:16.959Z,11.49
2016-08-30T01:31:16.875Z,11.49
2016-08-30T01:32:16.948Z,11.44
2016-08-30T01:33:16.957Z,11.38
2016-08-30T01:34:16.927Z,11.31
2016-08-30T01:35:16.927Z,11.41
2016-08-30T01:36:16.924Z,11.49
2016-08-30T01:37:16.912Z,11.34
2016-08-30T01:38:16.932Z,11.32
2016-08-30T01:39:16.899Z,11.24
2016-08-30T01:40:16.910Z,11.43
2016-08-30T01:41:16.969Z,11.29
2016-08-30T01:42:16.956Z,11.25
2016-08-30T01:43:16.953Z,11.34
2016-08-30T01:44:16.876Z,11.32
2016-08-30T01:45:16.985Z,11.21
2016-08-30T01:46:16.889Z,11.21
2016-08-30T01:47:16.959Z,11.25
2016-08-30T01:48:16.920Z,11.27
2016-08-30T01:49:16.936Z,11.13
2016-08-30T01:50:16.969Z,11.28
2016-08-30T01:51:16.930Z,11.24
2016-08-30T01:52:16.918Z,11.28
2016-08-30T01:53:16.930Z,11.11
2016-08-30T01:54:16.911Z,11.24
2016-08-30T01:55:17.006Z,11.19
2016-08-30T01:56:16.966Z,11.28
2016-08-30T01:57:16.942Z,11.17
2016-08-30T01:58:16.925Z,11.24
2016-08-30T01:59:16.951Z,11.11
2016-08-30T02:00:16.928Z,11.24
2016-08-30T02:01:16.959Z,11.11
2016-08-30T02:02:16.956Z,11.19
2016-08-30T02:03:16.922Z,11.21
2016-08-30T02:04:16.951Z,11.1
2016-08-30T02:05:16.927Z,10.99
2016-08-30T02:06:16.918Z,11.03
2016-08-30T02:07:16.948Z,11.16
2016-08-30T02:08:16.885Z,11.02
2016-08-30T02:09:16.912Z,11.07
2016-08-30T02:10:16.986Z,11.17
2016-08-30T02:11:16.982Z,11.06
2016-08-30T02:12:16.950Z,11.02
2016-08-30T02:13:16.954Z,11.02
2016-08-30T02:14:16.964Z,11.07
2016-08-30T02:15:17.054Z,10.98
2016-08-30T02:16:16.943Z,11.03
2016-08-30T02:17:16.932Z,11.02
2016-08-30T02:18:16.943Z,11.11
2016-08-30T02:19:16.969Z,11.07
2016-08-30T02:20:16.931Z,11.03
2016-08-30T02:21:16.891Z,11.13
2016-08-30T02:22:16.904Z,10.94
2016-08-30T02:23:16.965Z,10.99
2016-08-30T02:24:16.947Z,11.11
2016-08-30T02:25:16.965Z,10.95
2016-08-30T02:26:16.926Z,10.91
2016-08-30T02:27:16.933Z,11.02
2016-08-30T02:28:16.974Z,10.99
2016-08-30T02:29:16.978Z,10.84
2016-08-30T02:30:17.051Z,10.89
2016-08-30T02:31:16.958Z,10.89
2016-08-30T02:32:16.986Z,10.86
2016-08-30T02:35:28.566Z,10.89
2016-08-30T02:36:17.055Z,10.77
2016-08-30T02:37:16.777Z,10.92
2016-08-30T02:38:16.832Z,10.81
2016-08-30T02:39:16.821Z,10.68
2016-08-30T02:40:16.787Z,10.77
2016-08-30T02:41:16.878Z,10.71
2016-08-30T02:42:16.804Z,10.77
2016-08-30T02:43:16.800Z,10.83
2016-08-30T02:44:16.814Z,10.74
2016-08-30T02:45:16.822Z,10.7
2016-08-30T02:46:16.799Z,10.78
2016-08-30T02:47:16.798Z,10.71
2016-08-30T02:48:16.822Z,10.81
2016-08-30T02:49:16.823Z,10.71
2016-08-30T02:50:16.951Z,10.74
2016-08-30T02:51:16.820Z,10.74
2016-08-30T02:52:16.803Z,10.68
2016-08-30T02:53:16.815Z,10.63
2016-08-30T02:54:16.815Z,10.71
2016-08-30T02:55:16.807Z,10.62
2016-08-30T02:56:16.813Z,10.63
2016-08-30T02:57:16.788Z,10.7
2016-08-30T02:58:16.806Z,10.63
2016-08-30T02:59:16.807Z,10.65
2016-08-30T03:00:17.059Z,10.63
2016-08-30T03:01:16.801Z,10.68
2016-08-30T03:02:16.832Z,10.65
2016-08-30T03:03:16.815Z,10.74
2016-08-30T03:04:16.816Z,10.6
2016-08-30T03:05:16.801Z,10.65
2016-08-30T03:06:16.840Z,10.6
2016-08-30T03:07:16.846Z,10.6
2016-08-30T03:08:16.835Z,10.68
2016-08-30T03:09:16.820Z,10.55
2016-08-30T03:10:16.869Z,10.6
2016-08-30T03:11:16.824Z,10.6
2016-08-30T03:12:16.823Z,10.65
2016-08-30T03:13:16.837Z,10.65
2016-08-30T03:14:16.864Z,10.59
2016-08-30T03:15:18.106Z,10.6
2016-08-30T03:16:16.824Z,10.55
2016-08-30T03:17:16.837Z,10.56
2016-08-30T03:18:16.831Z,10.4
2016-08-30T03:19:16.818Z,10.63
2016-08-30T03:20:16.838Z,10.56
2016-08-30T03:21:16.832Z,10.58
2016-08-30T03:22:16.835Z,10.53
2016-08-30T03:23:16.821Z,10.7
2016-08-30T03:24:16.830Z,10.65
2016-08-30T03:25:16.852Z,10.59
2016-08-30T03:26:16.812Z,10.51
2016-08-30T03:27:16.850Z,10.53
2016-08-30T03:28:16.817Z,10.65
2016-08-30T03:29:16.820Z,10.66
2016-08-30T03:30:16.841Z,10.42
2016-08-30T03:31:16.840Z,10.52
2016-08-30T03:32:16.832Z,10.65
2016-08-30T03:33:16.835Z,10.6
2016-08-30T03:34:16.838Z,10.51
2016-08-30T03:35:16.821Z,10.46
2016-08-30T03:36:16.841Z,10.56
2016-08-30T03:37:16.835Z,10.59
2016-08-30T03:38:16.867Z,10.52
2016-08-30T03:39:16.868Z,10.44
2016-08-30T03:40:16.940Z,10.53
2016-08-30T03:41:16.903Z,10.46
2016-08-30T03:42:16.839Z,10.34
2016-08-30T03:43:16.896Z,10.59
2016-08-30T03:44:16.840Z,10.47
2016-08-30T03:45:17.240Z,10.52
2016-08-30T03:46:16.856Z,10.36
2016-08-30T03:47:16.860Z,10.55
2016-08-30T03:48:16.866Z,10.52
2016-08-30T03:49:16.854Z,10.44
2016-08-30T03:50:16.851Z,10.47
2016-08-30T03:51:16.854Z,10.47
2016-08-30T03:52:16.873Z,10.6
2016-08-30T03:53:16.856Z,10.47
2016-08-30T03:54:16.853Z,10.44
2016-08-30T03:55:16.860Z,10.37
2016-08-30T03:56:16.917Z,10.37
2016-08-30T03:57:16.877Z,10.55
2016-08-30T03:58:16.841Z,10.46
2016-08-30T03:59:16.868Z,10.25
2016-08-30T04:00:16.873Z,10.37
2016-08-30T04:01:16.868Z,10.42
2016-08-30T04:02:16.884Z,10.26
2016-08-30T04:03:16.875Z,10.36
2016-08-30T04:04:16.852Z,10.36
2016-08-30T04:05:16.862Z,10.26
2016-08-30T04:06:16.868Z,10.32
2016-08-30T04:07:16.864Z,10.33
2016-08-30T04:08:16.856Z,10.32
2016-08-30T04:09:16.880Z,10.3
2016-08-30T04:10:16.852Z,10.25
2016-08-30T04:11:16.857Z,10.28
2016-08-30T04:12:16.868Z,10.26
2016-08-30T04:13:16.863Z,10.39
2016-08-30T04:14:16.881Z,10.33
2016-08-30T04:15:16.853Z,10.32
2016-08-30T04:16:16.870Z,10.33
2016-08-30T04:17:16.867Z,10.24
2016-08-30T04:18:16.860Z,10.28
2016-08-30T04:19:16.853Z,10.26
2016-08-30T04:20:16.874Z,10.33
2016-08-30T04:21:16.863Z,10.25
2016-08-30T04:22:16.870Z,10.3
2016-08-30T04:23:16.876Z,10.28
2016-08-30T04:24:16.902Z,10.21
2016-08-30T04:25:16.920Z,10.15
2016-08-30T04:26:16.868Z,10.18
2016-08-30T04:27:16.887Z,10.17
2016-08-30T04:28:16.908Z,10.17
2016-08-30T04:29:16.885Z,10.19
2016-08-30T04:30:16.896Z,10.1
2016-08-30T04:31:16.900Z,10.18
2016-08-30T04:32:16.916Z,10.24
2016-08-30T04:33:16.885Z,10.19
2016-08-30T04:34:16.998Z,10.15
2016-08-30T04:35:16.914Z,10.21
2016-08-30T04:36:16.898Z,10.17
2016-08-30T04:37:16.917Z,10.24
2016-08-30T04:38:16.912Z,10.3
2016-08-30T04:39:16.887Z,10.22
2016-08-30T04:40:17.494Z,10.03
2016-08-30T04:41:16.913Z,10.25
2016-08-30T04:42:16.889Z,10.19
2016-08-30T04:43:16.898Z,10.25
2016-08-30T04:44:16.881Z,10.17
2016-08-30T04:45:16.881Z,10.18
2016-08-30T04:46:16.910Z,10.22
2016-08-30T04:47:16.918Z,10.34
2016-08-30T04:48:16.913Z,10.28
2016-08-30T04:49:16.921Z,10.24
2016-08-30T04:50:16.884Z,10.22
2016-08-30T04:51:16.904Z,10.25
2016-08-30T04:52:16.885Z,10.17
2016-08-30T04:53:16.889Z,10.24
2016-08-30T04:54:16.911Z,10.3
2016-08-30T04:55:17.151Z,10.19
2016-08-30T04:56:16.956Z,10.25
2016-08-30T04:57:16.930Z,10.25
2016-08-30T04:58:16.888Z,10.3
2016-08-30T04:59:16.898Z,10.33
2016-08-30T05:00:16.889Z,10.18
2016-08-30T05:01:16.899Z,10.25
2016-08-30T05:02:16.915Z,10.19
2016-08-30T05:03:16.910Z,10.36
2016-08-30T05:04:16.932Z,10.28
2016-08-30T05:05:16.929Z,10.25
2016-08-30T05:06:16.964Z,10.37
2016-08-30T05:07:16.913Z,10.3
2016-08-30T05:08:16.901Z,10.3
2016-08-30T05:09:16.909Z,10.34
2016-08-30T05:10:16.885Z,10.28
2016-08-30T05:11:17.028Z,10.17
2016-08-30T05:12:16.898Z,10.21
2016-08-30T05:13:16.933Z,10.36
2016-08-30T05:14:16.996Z,10.25
2016-08-30T05:15:16.964Z,10.26
2016-08-30T05:16:16.929Z,10.36
2016-08-30T05:17:16.917Z,10.36
2016-08-30T05:18:16.927Z,10.24
2016-08-30T05:19:16.918Z,10.25
2016-08-30T05:20:16.946Z,10.33
2016-08-30T05:21:16.935Z,10.4
2016-08-30T05:22:16.901Z,10.37
2016-08-30T05:23:16.924Z,10.46
2016-08-30T05:24:16.913Z,10.34
2016-08-30T05:25:16.928Z,10.51
2016-08-30T05:26:16.921Z,10.42
2016-08-30T05:27:16.919Z,10.36
2016-08-30T05:28:16.930Z,10.46
2016-08-30T05:29:16.917Z,10.46
2016-08-30T05:30:16.955Z,10.52
2016-08-30T05:31:16.905Z,10.42
2016-08-30T05:32:16.942Z,10.47
2016-08-30T05:33:16.934Z,10.53
2016-08-30T05:34:16.952Z,10.53
2016-08-30T05:35:16.947Z,10.7
2016-08-30T05:36:17.231Z,10.66
2016-08-30T05:37:16.968Z,10.71
2016-08-30T05:38:16.934Z,10.62
2016-08-30T05:39:16.931Z,10.47
2016-08-30T05:40:17.095Z,10.63
2016-08-30T05:41:17.027Z,10.6
2016-08-30T05:42:16.928Z,10.59
2016-08-30T05:43:17.094Z,10.7
2016-08-30T05:44:16.989Z,10.63
2016-08-30T05:45:16.934Z,10.89
2016-08-30T05:46:16.968Z,10.83
2016-08-30T05:47:16.932Z,10.81
2016-08-30T05:48:16.916Z,10.8
2016-08-30T05:49:16.945Z,11.02
2016-08-30T05:50:17.514Z,10.96
2016-08-30T05:51:17.009Z,11.03
2016-08-30T05:52:16.935Z,11.01
2016-08-30T05:53:16.950Z,10.99
2016-08-30T05:57:22.841Z,11.16
2016-08-30T05:58:17.727Z,11.32
2016-08-30T05:59:17.854Z,11.28
2016-08-30T06:00:39.415Z,11.29
2016-08-30T06:01:45.266Z,11.34
2016-08-30T06:02:17.170Z,11.47
2016-08-30T06:03:16.985Z,11.52
2016-08-30T06:04:17.006Z,11.38
2016-08-30T06:05:17.598Z,11.5
2016-08-30T06:06:16.977Z,11.56
2016-08-30T06:07:18.184Z,11.54
2016-08-30T06:08:17.037Z,11.64
2016-08-30T06:09:17.034Z,11.7
2016-08-30T06:10:41.669Z,11.71
2016-08-30T06:11:16.999Z,11.72
2016-08-30T06:12:16.963Z,11.83
2016-08-30T06:13:16.963Z,11.89
2016-08-30T06:14:16.991Z,11.86
2016-08-30T06:15:25.327Z,12.01
2016-08-30T06:16:17.005Z,11.9
2016-08-30T06:17:17.018Z,12.05
2016-08-30T06:18:17.052Z,12.13
2016-08-30T06:19:17.449Z,12.15
2016-08-30T06:20:27.559Z,12.16
2016-08-30T06:21:16.984Z,12.24
2016-08-30T06:22:16.971Z,12.23
2016-08-30T06:23:16.963Z,12.19
2016-08-30T06:24:16.965Z,12.34
2016-08-30T06:25:16.978Z,12.37
2016-08-30T06:26:16.950Z,12.49
2016-08-30T06:27:16.977Z,12.54
2016-08-30T06:28:16.968Z,12.74
2016-08-30T06:29:17.021Z,12.62
2016-08-30T06:30:17.758Z,12.59
2016-08-30T06:31:17.022Z,12.62
2016-08-30T06:32:17.009Z,12.81
2016-08-30T06:33:16.971Z,12.79
2016-08-30T06:34:16.989Z,12.87
2016-08-30T06:35:17.012Z,12.93
2016-08-30T06:36:17.049Z,12.95
2016-08-30T06:37:16.983Z,13.11
2016-08-30T06:38:17.035Z,13.15
2016-08-30T06:39:16.979Z,13.09
2016-08-30T06:40:17.013Z,13.21
2016-08-30T06:41:17.034Z,13.25
2016-08-30T06:42:17.009Z,13.38
2016-08-30T06:43:16.989Z,13.43
2016-08-30T06:44:16.964Z,13.54
2016-08-30T06:45:17.479Z,13.58
2016-08-30T06:46:17.001Z,13.58
2016-08-30T06:47:16.965Z,13.71
2016-08-30T06:48:16.972Z,13.73
2016-08-30T06:49:17.045Z,13.7
2016-08-30T06:50:16.971Z,13.8
2016-08-30T06:51:16.995Z,13.92
2016-08-30T06:52:17.073Z,13.89
2016-08-30T06:53:16.975Z,13.99
2016-08-30T06:54:16.983Z,14.12
2016-08-30T06:55:16.997Z,14.14
2016-08-30T06:56:16.989Z,14.27
2016-08-30T06:57:16.997Z,14.17
2016-08-30T06:58:17.003Z,14.31
2016-08-30T06:59:17.010Z,14.35
2016-08-30T07:00:17.033Z,14.42
2016-08-30T07:01:17.176Z,14.49
2016-08-30T07:02:16.999Z,14.44
2016-08-30T07:03:17.022Z,14.5
2016-08-30T07:04:16.982Z,14.61
2016-08-30T07:05:17.053Z,14.67
2016-08-30T07:06:17.034Z,14.67
2016-08-30T07:07:17.310Z,14.71
2016-08-30T07:08:17.596Z,14.75
2016-08-30T07:09:16.986Z,14.84
2016-08-30T07:10:17.033Z,14.88
2016-08-30T07:11:17.014Z,14.93
2016-08-30T07:12:17.034Z,14.95
2016-08-30T07:13:17.015Z,14.99
2016-08-30T07:14:17.057Z,15.06
2016-08-30T07:15:17.071Z,15.01
2016-08-30T07:16:17.062Z,15.26
2016-08-30T07:17:17.045Z,15.23
2016-08-30T07:18:17.031Z,15.19
2016-08-30T07:19:17.041Z,15.3
2016-08-30T07:20:21.153Z,15.35
2016-08-30T07:21:17.166Z,15.38
2016-08-30T07:22:17.087Z,15.45
2016-08-30T07:23:17.412Z,15.45
2016-08-30T07:24:17.035Z,15.41
2016-08-30T07:25:17.311Z,15.54
2016-08-30T07:26:18.622Z,15.6
2016-08-30T07:27:17.058Z,15.66
2016-08-30T07:28:17.043Z,15.7
2016-08-30T07:29:16.998Z,15.66
2016-08-30T07:30:17.133Z,15.84
2016-08-30T07:31:17.036Z,15.88
2016-08-30T07:32:17.017Z,15.82
2016-08-30T07:33:17.050Z,15.74
2016-08-30T07:34:17.022Z,15.96
2016-08-30T07:35:17.036Z,15.93
2016-08-30T07:36:17.072Z,15.92
2016-08-30T07:37:17.093Z,16.01
2016-08-30T07:38:17.032Z,15.99
2016-08-30T07:39:17.070Z,16.15
2016-08-30T07:40:17.064Z,16.11
2016-08-30T07:41:17.077Z,16.11
2016-08-30T07:42:17.059Z,16.23
2016-08-30T07:43:17.057Z,16.3
2016-08-30T07:44:17.075Z,16.37
2016-08-30T07:45:17.049Z,16.25
2016-08-30T07:46:17.110Z,16.48
2016-08-30T07:47:17.028Z,16.42
2016-08-30T07:48:17.113Z,16.52
2016-08-30T07:49:17.048Z,16.58
2016-08-30T07:50:17.049Z,16.63
2016-08-30T07:51:17.060Z,16.56
2016-08-30T07:52:17.060Z,16.63
2016-08-30T07:53:17.051Z,16.7
2016-08-30T07:54:17.044Z,16.77
2016-08-30T07:55:17.476Z,16.88
2016-08-30T07:56:18.241Z,16.9
2016-08-30T07:57:17.078Z,16.89
2016-08-30T07:58:17.060Z,16.99
2016-08-30T07:59:17.126Z,17.08
2016-08-30T08:00:17.059Z,16.99
2016-08-30T08:01:17.209Z,17.06
2016-08-30T08:02:17.070Z,17.22
2016-08-30T08:03:28.023Z,17.07
2016-08-30T08:04:17.126Z,17.17
2016-08-30T08:05:17.077Z,17.23
2016-08-30T08:06:17.066Z,17.35
2016-08-30T08:07:17.739Z,17.33
2016-08-30T08:08:17.107Z,17.47
2016-08-30T08:09:17.217Z,17.4
2016-08-30T08:10:18.055Z,17.44
2016-08-30T08:11:17.213Z,17.46
2016-08-30T08:12:17.158Z,17.51
2016-08-30T08:13:17.066Z,17.55
2016-08-30T08:14:17.066Z,17.59
2016-08-30T08:15:17.660Z,17.67
2016-08-30T08:16:17.292Z,17.62
2016-08-30T08:17:17.070Z,17.69
2016-08-30T08:18:17.078Z,17.78
2016-08-30T08:19:17.109Z,17.88
2016-08-30T08:20:17.085Z,17.82
2016-08-30T08:21:17.150Z,17.91
2016-08-30T08:22:17.072Z,17.88
2016-08-30T08:23:17.090Z,17.99
2016-08-30T08:24:17.480Z,18.04
2016-08-30T08:25:17.468Z,18.04
2016-08-30T08:26:17.749Z,18.04
2016-08-30T08:30:45.779Z,18.25
2016-08-30T08:31:45.590Z,18.34
2016-08-30T08:32:45.469Z,18.4
2016-08-30T08:33:45.615Z,18.37
2016-08-30T08:34:45.484Z,18.54
2016-08-30T08:35:45.473Z,18.54
2016-08-30T08:36:45.606Z,18.61
2016-08-30T08:37:45.488Z,18.54
2016-08-30T08:38:45.500Z,18.57
2016-08-30T08:39:45.497Z,18.64
2016-08-30T08:42:03.640Z,18.8
2016-08-30T08:42:45.519Z,18.83
2016-08-30T08:43:45.585Z,18.97
2016-08-30T08:44:55.403Z,18.91
2016-08-30T08:45:45.985Z,18.95
2016-08-30T08:46:45.909Z,18.97
2016-08-30T08:47:46.325Z,18.97
2016-08-30T08:48:45.566Z,19.01
2016-08-30T08:49:45.566Z,19.13
2016-08-30T08:50:45.628Z,19.13
2016-08-30T08:51:46.796Z,19.13
2016-08-30T08:52:45.590Z,19.2
2016-08-30T08:53:45.657Z,19.23
2016-08-30T08:54:45.584Z,19.23
2016-08-30T08:55:45.683Z,19.23
2016-08-30T08:56:45.771Z,19.42
2016-08-30T08:57:45.554Z,19.38
2016-08-30T08:58:45.575Z,19.36
2016-08-30T08:59:46.357Z,19.5
2016-08-30T09:00:46.063Z,19.46
2016-08-30T09:01:45.548Z,19.48
2016-08-30T09:02:45.626Z,19.46
2016-08-30T09:03:45.622Z,19.58
2016-08-30T09:04:45.538Z,19.58
2016-08-30T09:05:45.536Z,19.69
2016-08-30T09:06:45.551Z,19.68
2016-08-30T09:07:45.565Z,19.68
2016-08-30T09:08:45.601Z,19.66
2016-08-30T09:09:45.573Z,19.69
2016-08-30T09:10:45.580Z,19.73
2016-08-30T09:11:45.549Z,19.87
2016-08-30T09:12:45.745Z,19.8
2016-08-30T09:13:45.548Z,19.93
2016-08-30T09:14:45.623Z,19.94
2016-08-30T09:15:45.510Z,19.88
2016-08-30T09:16:45.620Z,19.84
2016-08-30T09:17:45.611Z,19.84
2016-08-30T09:18:45.868Z,20.08
2016-08-30T09:19:45.957Z,19.9
2016-08-30T09:20:45.549Z,19.98
2016-08-30T09:21:45.549Z,20.02
2016-08-30T09:22:47.019Z,20.06
2016-08-30T09:23:45.531Z,20.08
2016-08-30T09:24:45.533Z,20.12
2016-08-30T09:25:45.563Z,20.05
2016-08-30T09:26:45.561Z,20.15
2016-08-30T09:27:45.551Z,20.15
2016-08-30T09:28:45.577Z,20.2
2016-08-30T09:29:45.566Z,20.09
2016-08-30T09:30:45.653Z,20.12
2016-08-30T09:31:45.579Z,20.18
2016-08-30T09:32:45.566Z,20.16
2016-08-30T09:33:45.568Z,20.21
2016-08-30T09:34:45.536Z,20.34
2016-08-30T09:35:45.583Z,20.31
2016-08-30T09:36:45.547Z,20.33
2016-08-30T09:37:45.585Z,20.39
2016-08-30T09:38:45.615Z,20.46
2016-08-30T09:39:45.568Z,20.43
2016-08-30T09:40:45.572Z,20.47
2016-08-30T09:41:45.594Z,20.62
2016-08-30T09:42:45.557Z,20.51
2016-08-30T09:43:45.577Z,20.54
2016-08-30T09:44:45.565Z,20.59
2016-08-30T09:45:45.593Z,20.62
2016-08-30T09:46:45.583Z,20.71
2016-08-30T09:47:45.559Z,20.65
2016-08-30T09:48:45.534Z,20.79
2016-08-30T09:49:45.557Z,20.76
2016-08-30T09:50:45.563Z,20.69
2016-08-30T09:51:45.616Z,20.74
2016-08-30T09:52:45.577Z,20.76
2016-08-30T09:53:45.643Z,20.89
2016-08-30T09:54:45.564Z,20.91
2016-08-30T09:55:45.638Z,20.95
2016-08-30T09:56:45.603Z,21.01
2016-08-30T09:57:45.628Z,20.98
2016-08-30T09:58:45.607Z,21.09
2016-08-30T09:59:45.599Z,21.01
2016-08-30T10:00:45.595Z,21.01
2016-08-30T10:01:45.616Z,21.08
2016-08-30T10:02:45.617Z,21.08
2016-08-30T10:03:45.673Z,21.16
2016-08-30T10:04:45.602Z,21.24
2016-08-30T10:05:45.630Z,21.2
2016-08-30T10:06:45.648Z,21.2
2016-08-30T10:07:45.591Z,21.16
2016-08-30T10:08:45.584Z,21.26
2016-08-30T10:09:45.654Z,21.23
2016-08-30T10:10:45.641Z,21.24
2016-08-30T10:11:45.608Z,21.27
2016-08-30T10:12:45.580Z,21.34
2016-08-30T10:13:45.578Z,21.36
2016-08-30T10:14:45.612Z,21.35
2016-08-30T10:15:45.597Z,21.39
2016-08-30T10:16:46.408Z,21.42
2016-08-30T10:17:45.844Z,21.44
2016-08-30T10:18:46.978Z,21.59
2016-08-30T10:19:45.705Z,21.56
2016-08-30T10:20:45.630Z,21.54
2016-08-30T10:21:45.602Z,21.51
2016-08-30T10:22:46.271Z,21.54
2016-08-30T10:23:45.715Z,21.6
2016-08-30T10:24:45.802Z,21.53
2016-08-30T10:25:46.655Z,21.54
2016-08-30T10:26:46.254Z,21.63
2016-08-30T10:27:45.868Z,21.63
2016-08-30T10:28:45.748Z,21.66
2016-08-30T10:29:45.927Z,21.57
2016-08-30T10:30:45.590Z,21.57
2016-08-30T10:31:45.644Z,21.54
2016-08-30T10:32:45.606Z,21.61
2016-08-30T10:33:45.734Z,21.63
2016-08-30T10:34:45.670Z,21.57
2016-08-30T10:35:45.871Z,21.63
2016-08-30T10:36:45.733Z,21.57
2016-08-30T10:37:45.745Z,21.64
2016-08-30T10:38:45.615Z,21.64
2016-08-30T10:39:45.639Z,21.63
2016-08-30T10:40:45.703Z,21.71
2016-08-30T10:41:45.855Z,21.72
2016-08-30T10:42:45.895Z,21.72
2016-08-30T10:43:45.608Z,21.81
2016-08-30T10:44:46.610Z,21.83
2016-08-30T10:45:45.610Z,21.76
2016-08-30T10:46:46.392Z,21.92
2016-08-30T10:47:45.629Z,21.79
2016-08-30T10:48:45.622Z,21.91
2016-08-30T10:49:45.658Z,21.98
2016-08-30T10:50:45.615Z,22.02
2016-08-30T10:51:45.611Z,21.98
2016-08-30T10:52:45.827Z,22.04
2016-08-30T10:53:45.602Z,22.09
2016-08-30T10:54:45.764Z,22.1
2016-08-30T10:55:45.701Z,22.04
2016-08-30T10:56:45.642Z,22.22
2016-08-30T10:57:45.620Z,22.09
2016-08-30T10:58:45.647Z,22.09
2016-08-30T10:59:45.662Z,22.17
2016-08-30T11:00:45.640Z,22.29
2016-08-30T11:01:45.652Z,22.13
2016-08-30T11:02:45.638Z,22.28
2016-08-30T11:03:45.815Z,22.31
2016-08-30T11:04:46.200Z,22.29
2016-08-30T11:05:46.277Z,22.28
2016-08-30T11:06:45.624Z,22.29
2016-08-30T11:07:45.629Z,22.41
2016-08-30T11:08:45.667Z,22.23
2016-08-30T11:09:46.312Z,22.37
2016-08-30T11:10:45.809Z,22.37
2016-08-30T11:11:45.663Z,22.28
2016-08-30T11:12:46.709Z,22.41
2016-08-30T11:13:46.625Z,22.46
2016-08-30T11:14:45.763Z,22.35
2016-08-30T11:15:45.785Z,22.49
2016-08-30T11:16:45.852Z,22.52
2016-08-30T11:17:45.679Z,22.44
2016-08-30T11:18:45.676Z,22.46
2016-08-30T11:19:45.664Z,22.43
2016-08-30T11:20:45.659Z,22.44
2016-08-30T11:21:45.723Z,22.47
2016-08-30T11:22:45.674Z,22.37
2016-08-30T11:23:45.723Z,22.38
2016-08-30T11:24:47.028Z,22.43
2016-08-30T11:25:46.164Z,22.5
2016-08-30T11:26:46.386Z,22.47
2016-08-30T11:27:45.668Z,22.56
2016-08-30T11:28:45.695Z,22.59
2016-08-30T11:29:45.704Z,22.57
2016-08-30T11:30:45.914Z,22.6
2016-08-30T11:31:45.779Z,22.67
2016-08-30T11:32:46.163Z,22.71
2016-08-30T11:33:45.675Z,22.65
2016-08-30T11:34:46.549Z,22.64
2016-08-30T11:35:46.658Z,22.65
2016-08-30T11:36:45.689Z,22.56
2016-08-30T11:37:46.264Z,22.8
2016-08-30T11:38:46.690Z,22.67
2016-08-30T11:39:45.724Z,22.71
2016-08-30T11:40:46.499Z,22.78
2016-08-30T11:41:45.726Z,22.8
2016-08-30T11:42:46.340Z,22.83
2016-08-30T11:43:46.689Z,22.83
2016-08-30T11:44:46.442Z,22.87
2016-08-30T11:45:45.742Z,23.01
2016-08-30T11:46:45.735Z,22.89
2016-08-30T11:47:47.869Z,22.92
2016-08-30T11:48:47.565Z,22.9
2016-08-30T11:49:45.728Z,23.04
2016-08-30T11:50:46.483Z,23.02
2016-08-30T11:51:45.763Z,22.97
2016-08-30T11:52:46.867Z,23.07
2016-08-30T11:53:45.728Z,22.99
2016-08-30T11:54:46.732Z,22.93
2016-08-30T11:55:47.253Z,23.17
2016-08-30T11:56:46.769Z,23.15
2016-08-30T11:57:45.728Z,23.07
2016-08-30T11:58:46.596Z,23.09
2016-08-30T11:59:45.811Z,23.02
2016-08-30T12:00:47.743Z,23.04
2016-08-30T12:01:46.964Z,22.94
2016-08-30T12:02:45.707Z,22.97
2016-08-30T12:03:45.705Z,23.09
2016-08-30T12:04:45.810Z,22.96
2016-08-30T12:05:46.430Z,22.97
2016-08-30T12:06:45.719Z,23.11
2016-08-30T12:07:47.056Z,23.14
2016-08-30T12:08:45.734Z,23.14
2016-08-30T12:09:45.707Z,23.15
2016-08-30T12:10:45.734Z,23.24
2016-08-30T12:11:45.819Z,23.29
2016-08-30T12:12:46.131Z,23.38
2016-08-30T12:13:45.745Z,23.32
2016-08-30T12:14:46.595Z,23.32
2016-08-30T12:15:46.466Z,23.26
2016-08-30T12:16:45.723Z,23.45
2016-08-30T12:17:45.768Z,23.34
2016-08-30T12:18:45.724Z,23.4
2016-08-30T12:19:45.887Z,23.62
2016-08-30T12:20:45.882Z,23.14
2016-08-30T12:21:45.739Z,23.24
2016-08-30T12:22:45.771Z,23.35
2016-08-30T12:23:46.130Z,23.47
2016-08-30T12:24:45.795Z,23.45
2016-08-30T12:25:45.720Z,23.27
2016-08-30T12:26:45.803Z,23.4
2016-08-30T12:27:45.743Z,23.39
2016-08-30T12:28:45.776Z,23.43
2016-08-30T12:29:45.755Z,23.27
2016-08-30T12:30:45.748Z,23.39
2016-08-30T12:31:45.785Z,23.43
2016-08-30T12:32:45.788Z,23.57
2016-08-30T12:33:45.781Z,23.5
2016-08-30T12:34:45.770Z,23.45
2016-08-30T12:35:45.737Z,23.64
2016-08-30T12:36:45.755Z,23.4
2016-08-30T12:37:45.738Z,23.77
2016-08-30T12:38:45.768Z,23.45
2016-08-30T12:39:45.809Z,23.64
2016-08-30T12:40:45.833Z,23.68
2016-08-30T12:41:45.796Z,23.32
2016-08-30T12:42:45.783Z,23.38
2016-08-30T12:43:45.756Z,23.61
2016-08-30T12:44:45.789Z,23.5
2016-08-30T12:45:45.778Z,23.5
2016-08-30T12:46:45.785Z,23.5
2016-08-30T12:47:45.790Z,23.58
2016-08-30T12:48:45.759Z,23.65
2016-08-30T12:49:45.835Z,23.5
2016-08-30T12:50:45.837Z,23.23
2016-08-30T12:51:45.768Z,23.35
2016-08-30T12:52:45.796Z,23.46
2016-08-30T12:53:45.798Z,23.4
2016-08-30T12:54:46.479Z,23.64
2016-08-30T12:55:46.326Z,23.52
2016-08-30T12:56:45.792Z,23.58
2016-08-30T12:57:45.815Z,23.42
2016-08-30T12:58:45.834Z,23.46
2016-08-30T12:59:45.812Z,23.43
2016-08-30T13:00:45.850Z,23.57
2016-08-30T13:01:45.827Z,23.6
2016-08-30T13:02:45.833Z,23.6
2016-08-30T13:03:45.804Z,23.55
2016-08-30T13:04:45.864Z,23.52
2016-08-30T13:05:45.815Z,23.47